Terminal Aerodrome Forecast
Issued by NWS

Home | Current Version | Previous Version | Text Only | Print | Product List | Glossary On
Versions: 1 2 3 4 5 6 7 8 9 10 11 12 13 14 15 16 17 18 19 20 21 22 23 24 25 26 27 28 29 30
000
FTUS43 KLOT 301700
TAFGYY
TAF
KGYY 301739Z 3018/3118 23008KT P6SM SCT060 BKN100
     FM302300 25005KT P6SM SCT035 OVC080
     FM310500 30010G16KT P6SM VCSH SCT020 OVC030
     FM310800 33016G27KT P6SM -SHSN SCT012 BKN018
     FM311400 35024G35KT P6SM BKN030=

USA.gov is the U.S. government's official web portal to all federal, state and local government web resources and services.